createdAt,value
2023-04-23T00:02:19.683Z,42.58
2023-04-23T00:04:54.261Z,42.54
2023-04-23T00:07:23.830Z,42.63
2023-04-23T00:09:51.186Z,42.66
2023-04-23T00:12:21.122Z,42.62
2023-04-23T00:14:48.111Z,42.57
2023-04-23T00:17:14.792Z,42.65
2023-04-23T00:19:41.526Z,42.68
2023-04-23T00:22:08.258Z,42.66
2023-04-23T00:24:37.125Z,42.60
2023-04-23T00:27:05.995Z,42.67
2023-04-23T00:29:34.975Z,42.89
2023-04-23T00:32:03.799Z,42.63
2023-04-23T00:34:33.060Z,42.80
2023-04-23T00:36:59.710Z,42.85
2023-04-23T00:39:28.534Z,42.77
2023-04-23T00:41:57.308Z,42.94
2023-04-23T00:44:24.369Z,42.67
2023-04-23T00:46:53.147Z,42.93
2023-04-23T00:49:22.018Z,42.82
2023-04-23T00:51:48.626Z,43.17
2023-04-23T00:54:17.817Z,42.99
2023-04-23T00:56:44.558Z,43.31
2023-04-23T00:59:11.217Z,43.25
2023-04-23T01:01:41.054Z,43.28
2023-04-23T01:04:10.160Z,43.33
2023-04-23T01:06:39.108Z,43.43
2023-04-23T01:09:09.909Z,43.32
2023-04-23T01:11:38.286Z,43.32
2023-04-23T01:14:08.177Z,43.52
2023-04-23T01:16:38.537Z,43.34
2023-04-23T01:19:08.932Z,43.18
2023-04-23T01:21:36.326Z,43.42
2023-04-23T01:24:06.048Z,43.61
2023-04-23T01:26:32.782Z,43.64
2023-04-23T01:29:02.031Z,43.96
2023-04-23T01:31:28.932Z,44.14
2023-04-23T01:34:00.304Z,43.99
2023-04-23T01:36:29.390Z,44.13
2023-04-23T01:38:56.638Z,44.34
2023-04-23T01:41:25.417Z,44.23
2023-04-23T01:43:52.052Z,44.31
2023-04-23T01:46:18.810Z,44.44
2023-04-23T01:48:45.615Z,44.26
2023-04-23T01:51:14.434Z,44.38
2023-04-23T01:53:41.040Z,44.53
2023-04-23T01:56:09.852Z,44.66
2023-04-23T01:58:38.724Z,44.47
2023-04-23T02:01:06.704Z,44.49
2023-04-23T02:03:35.977Z,44.78
2023-04-23T02:06:07.348Z,44.54
2023-04-23T02:08:36.138Z,44.69
2023-04-23T02:11:04.957Z,44.64
2023-04-23T02:13:33.909Z,44.71
2023-04-23T02:16:00.600Z,44.65
2023-04-23T02:18:27.278Z,45.03
2023-04-23T02:20:54.319Z,45.05
2023-04-23T02:23:20.963Z,44.99
2023-04-23T02:25:47.758Z,44.82
2023-04-23T02:28:17.331Z,44.74
2023-04-23T02:30:48.337Z,44.78
2023-04-23T02:33:17.249Z,44.67
2023-04-23T02:35:43.899Z,44.80
2023-04-23T02:38:13.383Z,44.71
2023-04-23T02:40:42.369Z,44.73
2023-04-23T02:43:09.094Z,44.70
2023-04-23T02:45:35.810Z,44.62
2023-04-23T02:48:04.600Z,44.76
2023-04-23T02:50:35.161Z,44.63
2023-04-23T02:53:06.616Z,44.70
2023-04-23T02:55:33.290Z,44.71
2023-04-23T02:57:59.962Z,44.82
2023-04-23T03:00:27.141Z,44.87
2023-04-23T03:02:56.113Z,45.02
2023-04-23T03:05:23.142Z,44.82
2023-04-23T03:07:51.879Z,44.78
2023-04-23T03:10:18.595Z,45.07
2023-04-23T03:12:47.660Z,45.15
2023-04-23T03:15:18.119Z,44.94
2023-04-23T03:17:47.257Z,45.10
2023-04-23T03:20:16.559Z,44.90
2023-04-23T03:22:45.954Z,45.20
2023-04-23T03:25:12.613Z,45.18
2023-04-23T03:27:44.632Z,45.25
2023-04-23T03:30:11.647Z,45.13
2023-04-23T03:32:38.804Z,45.20
2023-04-23T03:35:06.168Z,45.15
2023-04-23T03:37:35.292Z,45.14
2023-04-23T03:40:07.830Z,44.91
2023-04-23T03:42:34.691Z,44.97
2023-04-23T03:45:04.217Z,45.05
2023-04-23T03:47:33.961Z,44.88
2023-04-23T03:50:00.694Z,45.31
2023-04-23T03:52:27.334Z,45.11
2023-04-23T03:54:53.933Z,45.01
2023-04-23T03:57:21.302Z,44.89
2023-04-23T03:59:48.010Z,45.02
2023-04-23T04:02:14.861Z,44.78
2023-04-23T04:04:46.222Z,44.75
2023-04-23T04:07:15.842Z,44.61
2023-04-23T04:09:42.467Z,44.60
2023-04-23T04:12:09.231Z,44.62
2023-04-23T04:14:41.839Z,44.67
2023-04-23T04:17:09.237Z,44.57
2023-04-23T04:19:35.998Z,44.56
2023-04-23T04:22:03.750Z,44.49
2023-04-23T04:24:32.638Z,44.44
2023-04-23T04:27:02.498Z,44.47
2023-04-23T04:29:31.226Z,44.57
2023-04-23T04:32:00.445Z,44.28
2023-04-23T04:34:27.780Z,44.42
2023-04-23T04:36:56.635Z,44.36
2023-04-23T04:39:23.409Z,44.24
2023-04-23T04:41:51.303Z,44.35
2023-04-23T04:44:17.965Z,44.39
2023-04-23T04:46:46.778Z,44.37
2023-04-23T04:49:14.182Z,44.20
2023-04-23T04:51:43.594Z,44.23
2023-04-23T04:54:12.379Z,44.28
2023-04-23T04:56:41.330Z,44.21
2023-04-23T04:59:07.997Z,44.27
2023-04-23T05:01:37.969Z,44.23
2023-04-23T05:04:05.140Z,44.17
2023-04-23T05:06:32.590Z,44.19
2023-04-23T05:09:01.512Z,44.20
2023-04-23T05:11:28.216Z,44.17
2023-04-23T05:13:54.887Z,44.22
2023-04-23T05:16:26.776Z,44.15
2023-04-23T05:18:53.477Z,44.16
2023-04-23T05:21:20.196Z,44.12
2023-04-23T05:23:49.910Z,43.96
2023-04-23T05:26:18.786Z,43.93
2023-04-23T05:28:48.159Z,44.14
2023-04-23T05:31:16.976Z,43.96
2023-04-23T05:33:50.489Z,44.19
2023-04-23T05:36:20.745Z,44.26
2023-04-23T05:38:49.875Z,44.12
2023-04-23T05:41:18.668Z,44.02
2023-04-23T05:43:47.597Z,44.40
2023-04-23T05:46:14.451Z,44.45
2023-04-23T05:48:43.490Z,44.43
2023-04-23T05:51:15.499Z,44.40
2023-04-23T05:53:45.357Z,44.62
2023-04-23T05:56:12.060Z,44.67
2023-04-23T05:58:43.670Z,44.73
2023-04-23T06:01:10.561Z,44.76
2023-04-23T06:03:42.011Z,44.63
2023-04-23T06:06:08.782Z,44.83
2023-04-23T06:08:40.313Z,44.46
2023-04-23T06:11:09.232Z,44.70
2023-04-23T06:13:42.989Z,44.94
2023-04-23T06:16:12.607Z,44.94
2023-04-23T06:18:41.496Z,44.89
2023-04-23T06:21:08.526Z,44.76
2023-04-23T06:23:35.571Z,44.65
2023-04-23T06:26:04.335Z,44.62
2023-04-23T06:28:33.770Z,44.42
2023-04-23T06:31:02.710Z,44.42
2023-04-23T06:33:29.729Z,44.41
2023-04-23T06:35:56.518Z,44.66
2023-04-23T06:38:25.305Z,44.72
2023-04-23T06:40:54.950Z,44.74
2023-04-23T06:43:24.225Z,44.52
2023-04-23T06:45:53.933Z,44.64
2023-04-23T06:48:22.222Z,44.57
2023-04-23T06:50:49.197Z,44.43
2023-04-23T06:53:16.104Z,44.29
2023-04-23T06:55:45.776Z,44.20
2023-04-23T06:58:16.183Z,44.09
2023-04-23T07:00:43.280Z,44.11
2023-04-23T07:03:10.095Z,44.16
2023-04-23T07:05:36.982Z,44.02
2023-04-23T07:08:03.744Z,43.89
2023-04-23T07:10:30.635Z,43.69
2023-04-23T07:12:57.482Z,43.70
2023-04-23T07:15:24.540Z,43.67
2023-04-23T07:17:53.487Z,43.50
2023-04-23T07:20:24.903Z,43.67
2023-04-23T07:22:53.868Z,43.38
2023-04-23T07:25:22.599Z,43.32
2023-04-23T07:27:49.398Z,43.24
2023-04-23T07:30:16.358Z,42.99
2023-04-23T07:32:43.581Z,43.11
2023-04-23T07:35:12.516Z,43.76
2023-04-23T07:37:39.231Z,43.27
2023-04-23T07:40:07.870Z,43.28
2023-04-23T07:42:34.613Z,43.21
2023-04-23T07:45:01.465Z,43.13
2023-04-23T07:47:30.590Z,43.02
2023-04-23T07:49:59.665Z,43.23
2023-04-23T07:52:26.342Z,43.41
2023-04-23T07:54:56.112Z,43.32
2023-04-23T07:57:24.970Z,43.31
2023-04-23T07:59:51.899Z,43.22
2023-04-23T08:02:23.709Z,43.22
2023-04-23T08:04:50.764Z,43.18
2023-04-23T08:07:19.800Z,43.37
2023-04-23T08:09:48.655Z,43.49
2023-04-23T08:12:17.457Z,43.42
2023-04-23T08:14:44.637Z,43.61
2023-04-23T08:17:13.645Z,43.56
2023-04-23T08:19:42.917Z,43.62
2023-04-23T08:22:13.489Z,43.62
2023-04-23T08:24:41.037Z,43.58
2023-04-23T08:27:07.754Z,43.60
2023-04-23T08:29:34.389Z,43.45
2023-04-23T08:32:01.112Z,43.37
2023-04-23T08:34:27.904Z,43.67
2023-04-23T08:36:56.690Z,43.47
2023-04-23T08:39:28.076Z,43.63
2023-04-23T08:41:55.516Z,43.43
2023-04-23T08:44:23.625Z,43.35
2023-04-23T08:46:50.367Z,43.16
2023-04-23T08:49:17.970Z,43.08
2023-04-23T08:51:54.126Z,42.88
2023-04-23T08:54:26.953Z,43.20
2023-04-23T08:56:59.980Z,42.99
2023-04-23T08:59:26.766Z,43.07
2023-04-23T09:01:54.129Z,42.77
2023-04-23T09:04:24.830Z,42.99
2023-04-23T09:06:54.262Z,43.25
2023-04-23T09:09:23.811Z,43.28
2023-04-23T09:11:52.210Z,43.01
2023-04-23T09:14:22.581Z,42.88
2023-04-23T09:16:49.395Z,42.97
2023-04-23T09:19:16.168Z,42.80
2023-04-23T09:21:45.099Z,42.49
2023-04-23T09:24:12.240Z,42.77
2023-04-23T09:26:49.810Z,42.34
2023-04-23T09:29:18.590Z,42.77
2023-04-23T09:31:52.350Z,41.27
2023-04-23T09:34:19.396Z,42.25
2023-04-23T09:36:46.876Z,41.16
2023-04-23T09:39:23.177Z,41.30
2023-04-23T09:41:54.082Z,40.90
2023-04-23T09:44:24.317Z,40.46
2023-04-23T09:46:53.590Z,40.67
2023-04-23T09:49:20.575Z,40.28
2023-04-23T09:51:50.467Z,39.42
2023-04-23T09:54:27.371Z,39.53
2023-04-23T09:56:59.582Z,39.23
2023-04-23T09:59:39.505Z,38.88
2023-04-23T10:02:15.799Z,38.54
2023-04-23T10:04:42.885Z,38.02
2023-04-23T10:09:43.741Z,37.44
2023-04-23T10:12:27.746Z,37.50
2023-04-23T10:14:59.808Z,38.08
2023-04-23T10:17:26.509Z,37.87
2023-04-23T10:19:53.200Z,37.96
2023-04-23T10:22:20.403Z,37.78
2023-04-23T10:24:50.478Z,37.76
2023-04-23T10:27:30.822Z,37.56
2023-04-23T10:30:05.505Z,37.94
2023-04-23T10:32:38.059Z,38.01
2023-04-23T10:35:08.882Z,37.84
2023-04-23T10:37:36.602Z,37.49
2023-04-23T10:40:12.509Z,37.41
2023-04-23T10:42:42.906Z,37.28
2023-04-23T10:47:48.561Z,37.57
2023-04-23T10:50:36.046Z,37.62
2023-04-23T10:53:03.137Z,37.39
2023-04-23T10:55:32.650Z,37.19
2023-04-23T10:58:06.231Z,37.60
2023-04-23T11:00:42.114Z,37.73
2023-04-23T11:03:43.610Z,38.02
2023-04-23T11:06:19.702Z,37.41
2023-04-23T11:08:54.078Z,36.98
2023-04-23T11:11:26.331Z,36.03
2023-04-23T11:13:55.730Z,37.19
2023-04-23T11:16:23.299Z,36.23
2023-04-23T11:19:06.532Z,36.18
2023-04-23T11:22:02.159Z,36.26
2023-04-23T11:24:42.881Z,36.08
2023-04-23T11:27:11.615Z,36.07
2023-04-23T11:29:40.126Z,36.09
2023-04-23T11:32:10.934Z,35.66
2023-04-23T11:34:38.577Z,35.40
2023-04-23T11:37:09.901Z,35.43
2023-04-23T11:39:36.887Z,34.30
2023-04-23T11:42:05.300Z,34.74
2023-04-23T11:44:34.267Z,34.93
2023-04-23T11:47:03.520Z,33.38
2023-04-23T11:49:30.258Z,34.96
2023-04-23T11:51:59.445Z,34.98
2023-04-23T11:54:27.616Z,35.77
2023-04-23T11:56:56.745Z,35.14
2023-04-23T11:59:25.606Z,34.96
2023-04-23T12:01:55.334Z,35.17
2023-04-23T12:04:23.850Z,35.61
2023-04-23T12:06:51.276Z,36.05
2023-04-23T12:09:19.383Z,36.47
2023-04-23T12:11:50.922Z,36.32
2023-04-23T12:14:18.365Z,36.51
2023-04-23T12:16:52.434Z,36.56
2023-04-23T12:19:22.249Z,35.92
2023-04-23T12:21:56.066Z,35.18
2023-04-23T12:24:23.756Z,34.92
2023-04-23T12:26:54.650Z,35.27
2023-04-23T12:29:24.498Z,34.71
2023-04-23T12:31:54.870Z,34.18
2023-04-23T12:34:24.158Z,34.32
2023-04-23T12:36:52.210Z,34.87
2023-04-23T12:39:24.453Z,36.01
2023-04-23T12:41:53.101Z,35.34
2023-04-23T12:44:20.507Z,35.62
2023-04-23T12:47:00.307Z,34.33
2023-04-23T12:49:29.752Z,34.60
2023-04-23T12:52:01.469Z,35.10
2023-04-23T12:54:39.736Z,34.67
2023-04-23T12:57:07.428Z,34.92
2023-04-23T12:59:36.384Z,34.91
2023-04-23T13:02:07.003Z,34.61
2023-04-23T13:04:35.432Z,34.68
2023-04-23T13:07:04.488Z,34.62
2023-04-23T13:09:36.072Z,35.88
2023-04-23T13:12:02.891Z,35.58
2023-04-23T13:14:32.007Z,35.47
2023-04-23T13:16:58.690Z,35.79
2023-04-23T13:19:25.592Z,35.53
2023-04-23T13:21:52.358Z,35.59
2023-04-23T13:24:20.171Z,35.79
2023-04-23T13:26:47.292Z,35.59
2023-04-23T13:29:16.349Z,35.89
2023-04-23T13:31:45.589Z,35.74
2023-04-23T13:34:14.547Z,35.95
2023-04-23T13:36:43.952Z,36.16
2023-04-23T13:39:13.375Z,36.07
2023-04-23T13:41:40.845Z,36.08
2023-04-23T13:44:09.747Z,35.95
2023-04-23T13:46:40.240Z,35.51
2023-04-23T13:49:07.853Z,35.04
2023-04-23T13:51:35.784Z,35.58
2023-04-23T13:54:02.948Z,35.73
2023-04-23T13:56:30.560Z,33.94
2023-04-23T13:59:18.460Z,34.51
2023-04-23T14:01:50.263Z,35.38
2023-04-23T14:04:17.811Z,34.58
2023-04-23T14:06:44.535Z,33.41
2023-04-23T14:09:11.461Z,34.42
2023-04-23T14:11:40.288Z,34.84
2023-04-23T14:14:07.599Z,34.85
2023-04-23T14:16:36.478Z,34.39
2023-04-23T14:19:03.212Z,34.44
2023-04-23T14:21:29.932Z,32.81
2023-04-23T14:23:59.519Z,32.54
2023-04-23T14:29:11.080Z,34.03
2023-04-23T14:31:40.660Z,34.86
2023-04-23T14:34:09.570Z,44.38
2023-04-23T14:36:36.438Z,43.68
2023-04-23T14:39:05.037Z,41.73
2023-04-23T14:41:32.836Z,45.23
2023-04-23T14:44:04.800Z,44.50
2023-04-23T14:46:31.513Z,43.97
2023-04-23T14:48:58.152Z,46.67
2023-04-23T14:51:27.489Z,46.93
2023-04-23T14:53:56.439Z,40.22
2023-04-23T14:56:25.653Z,44.30
2023-04-23T14:58:54.461Z,42.19
2023-04-23T15:01:23.298Z,45.73
2023-04-23T15:03:55.180Z,46.52
2023-04-23T15:06:21.992Z,47.79
2023-04-23T15:08:50.783Z,48.38
2023-04-23T15:11:20.117Z,46.38
2023-04-23T15:13:52.869Z,48.70
2023-04-23T15:19:06.414Z,45.97
2023-04-23T15:21:35.325Z,48.58
2023-04-23T15:24:01.946Z,44.71
2023-04-23T15:26:32.736Z,46.48
2023-04-23T15:29:04.980Z,44.10
2023-04-23T15:31:31.781Z,41.22
2023-04-23T15:33:58.562Z,46.75
2023-04-23T15:36:27.360Z,44.23
2023-04-23T15:38:56.191Z,44.57
2023-04-23T15:41:22.878Z,47.43
2023-04-23T15:43:53.837Z,46.47
2023-04-23T15:46:22.737Z,47.46
2023-04-23T15:48:49.404Z,48.19
2023-04-23T15:51:18.222Z,43.32
2023-04-23T15:53:44.931Z,47.75
2023-04-23T15:56:13.779Z,48.48
2023-04-23T15:58:40.619Z,49.65
2023-04-23T16:01:07.587Z,50.78
2023-04-23T16:03:34.713Z,51.50
2023-04-23T16:06:01.843Z,51.58
2023-04-23T16:08:36.235Z,52.94
2023-04-23T16:11:07.101Z,53.45
2023-04-23T16:13:36.090Z,53.55
2023-04-23T16:16:02.775Z,53.46
2023-04-23T16:18:31.852Z,54.01
2023-04-23T16:20:58.911Z,54.11
2023-04-23T16:23:27.904Z,54.36
2023-04-23T16:25:56.801Z,54.13
2023-04-23T16:28:23.442Z,54.85
2023-04-23T16:30:50.315Z,53.34
2023-04-23T16:33:19.720Z,49.30
2023-04-23T16:35:48.765Z,51.01
2023-04-23T16:38:15.652Z,53.36
2023-04-23T16:40:42.635Z,51.82
2023-04-23T16:43:10.459Z,49.85
2023-04-23T16:45:38.834Z,52.77
2023-04-23T16:48:06.861Z,52.37
2023-04-23T16:50:33.729Z,50.59
2023-04-23T16:53:02.843Z,50.61
2023-04-23T16:55:29.517Z,49.69
2023-04-23T16:57:59.472Z,50.28
2023-04-23T17:00:26.273Z,49.82
2023-04-23T17:02:57.773Z,49.73
2023-04-23T17:05:24.699Z,51.94
2023-04-23T17:07:52.845Z,49.20
2023-04-23T17:10:19.749Z,51.70
2023-04-23T17:12:53.902Z,50.74
2023-04-23T17:15:22.840Z,52.21
2023-04-23T17:17:52.973Z,48.00
2023-04-23T17:20:21.801Z,50.23
2023-04-23T17:22:48.540Z,47.12
2023-04-23T17:25:19.927Z,49.76
2023-04-23T17:27:46.873Z,48.83
2023-04-23T17:30:13.851Z,50.05
2023-04-23T17:32:46.060Z,48.08
2023-04-23T17:35:12.899Z,48.60
2023-04-23T17:37:41.657Z,48.35
2023-04-23T17:40:09.793Z,47.98
2023-04-23T17:42:36.424Z,47.69
2023-04-23T17:45:03.470Z,47.92
2023-04-23T17:47:32.358Z,46.81
2023-04-23T17:50:01.218Z,47.75
2023-04-23T17:52:27.961Z,48.45
2023-04-23T17:54:56.808Z,47.84
2023-04-23T17:57:23.557Z,48.48
2023-04-23T17:59:50.149Z,47.49
2023-04-23T18:02:17.179Z,46.97
2023-04-23T18:04:49.322Z,48.17
2023-04-23T18:07:15.969Z,46.47
2023-04-23T18:09:45.005Z,43.77
2023-04-23T18:12:14.038Z,44.15
2023-04-23T18:14:42.903Z,45.58
2023-04-23T18:17:09.688Z,44.25
2023-04-23T18:19:38.602Z,45.01
2023-04-23T18:22:08.273Z,43.00
2023-04-23T18:24:37.191Z,44.95
2023-04-23T18:27:06.275Z,45.36
2023-04-23T18:29:35.218Z,44.21
2023-04-23T18:32:04.198Z,44.93
2023-04-23T18:34:32.641Z,44.42
2023-04-23T18:37:04.512Z,42.01
2023-04-23T18:39:36.649Z,42.92
2023-04-23T18:42:03.491Z,41.57
2023-04-23T18:44:32.404Z,42.26
2023-04-23T18:47:01.172Z,41.17
2023-04-23T18:49:49.727Z,40.33
2023-04-23T18:52:18.915Z,41.67
2023-04-23T18:54:45.887Z,41.66
2023-04-23T18:57:12.607Z,41.83
2023-04-23T18:59:39.578Z,41.96
2023-04-23T19:02:09.107Z,40.36
2023-04-23T19:04:39.110Z,40.57
2023-04-23T19:07:08.679Z,39.79
2023-04-23T19:09:40.553Z,39.37
2023-04-23T19:12:07.339Z,39.15
2023-04-23T19:14:33.987Z,39.98
2023-04-23T19:17:02.914Z,40.11
2023-04-23T19:19:32.073Z,38.96
2023-04-23T19:22:01.066Z,39.72
2023-04-23T19:24:28.994Z,38.73
2023-04-23T19:26:57.935Z,38.24
2023-04-23T19:29:26.952Z,39.92
2023-04-23T19:31:53.626Z,39.18
2023-04-23T19:34:22.461Z,38.76
2023-04-23T19:36:53.785Z,37.99
2023-04-23T19:39:22.706Z,38.47
2023-04-23T19:41:52.618Z,38.65
2023-04-23T19:44:19.304Z,38.73
2023-04-23T19:46:48.474Z,39.12
2023-04-23T19:49:20.619Z,38.61
2023-04-23T19:51:49.495Z,37.99
2023-04-23T19:54:16.223Z,37.84
2023-04-23T19:56:42.864Z,37.45
2023-04-23T19:59:13.951Z,37.51
2023-04-23T20:01:40.974Z,37.39
2023-04-23T20:04:09.915Z,37.57
2023-04-23T20:06:38.802Z,37.57
2023-04-23T20:09:08.523Z,37.88
2023-04-23T20:11:37.865Z,37.61
2023-04-23T20:14:04.593Z,37.35
2023-04-23T20:16:35.984Z,36.79
2023-04-23T20:19:04.929Z,36.96
2023-04-23T20:21:37.694Z,36.78
2023-04-23T20:24:08.965Z,36.03
2023-04-23T20:26:36.273Z,36.13
2023-04-23T20:29:05.194Z,36.08
2023-04-23T20:31:33.989Z,36.14
2023-04-23T20:34:00.939Z,35.77
2023-04-23T20:36:31.747Z,36.03
2023-04-23T20:38:59.318Z,35.86
2023-04-23T20:41:34.375Z,35.11
2023-04-23T20:44:05.022Z,35.24
2023-04-23T20:46:32.386Z,35.36
2023-04-23T20:49:00.879Z,35.15
2023-04-23T20:51:34.438Z,36.07
2023-04-23T20:54:01.839Z,34.91
2023-04-23T20:56:30.787Z,35.15
2023-04-23T20:58:57.871Z,34.67
2023-04-23T21:01:27.371Z,35.04
2023-04-23T21:03:56.841Z,35.04
2023-04-23T21:06:23.673Z,34.93
2023-04-23T21:08:52.536Z,35.07
2023-04-23T21:11:19.740Z,35.26
2023-04-23T21:13:46.568Z,34.88
2023-04-23T21:16:15.486Z,34.80
2023-04-23T21:18:45.353Z,35.13
2023-04-23T21:21:14.314Z,34.71
2023-04-23T21:23:40.980Z,34.86
2023-04-23T21:26:12.912Z,34.49
2023-04-23T21:28:41.721Z,34.52
2023-04-23T21:31:21.578Z,34.56
2023-04-23T21:33:50.402Z,34.43
2023-04-23T21:36:19.310Z,34.49
2023-04-23T21:38:48.188Z,34.45
2023-04-23T21:41:14.892Z,34.41
2023-04-23T21:43:43.772Z,34.51
2023-04-23T21:46:10.433Z,34.62
2023-04-23T21:48:39.229Z,34.67
2023-04-23T21:51:07.850Z,34.81
2023-04-23T21:53:34.598Z,34.68
2023-04-23T21:56:01.258Z,34.62
2023-04-23T21:58:28.002Z,34.57
2023-04-23T22:00:56.971Z,34.71
2023-04-23T22:03:37.991Z,34.50
2023-04-23T22:06:08.643Z,34.43
2023-04-23T22:08:38.160Z,34.53
2023-04-23T22:11:05.821Z,34.20
2023-04-23T22:13:32.437Z,34.48
2023-04-23T22:15:59.408Z,35.29
2023-04-23T22:18:28.813Z,35.84
2023-04-23T22:20:57.967Z,36.05
2023-04-23T22:23:29.379Z,35.98
2023-04-23T22:25:56.174Z,36.06
2023-04-23T22:28:22.848Z,35.98
2023-04-23T22:30:50.049Z,36.04
2023-04-23T22:33:21.391Z,36.29
2023-04-23T22:35:50.298Z,36.42
2023-04-23T22:38:21.919Z,36.54
2023-04-23T22:40:48.590Z,36.50
2023-04-23T22:43:19.977Z,36.82
2023-04-23T22:45:46.590Z,36.61
2023-04-23T22:48:15.903Z,36.77
2023-04-23T22:50:45.795Z,36.83
2023-04-23T22:53:12.530Z,36.80
2023-04-23T22:55:41.912Z,37.05
2023-04-23T22:58:10.703Z,37.02
2023-04-23T23:00:37.415Z,37.17
2023-04-23T23:03:04.200Z,37.14
2023-04-23T23:05:33.066Z,37.03
2023-04-23T23:08:00.044Z,37.22
2023-04-23T23:10:28.904Z,37.34
2023-04-23T23:12:55.596Z,37.35
2023-04-23T23:15:24.494Z,37.27
2023-04-23T23:17:53.915Z,37.30
2023-04-23T23:20:22.978Z,37.41
2023-04-23T23:22:49.664Z,37.35
2023-04-23T23:25:18.472Z,37.23
2023-04-23T23:27:47.698Z,37.54
2023-04-23T23:30:16.728Z,37.36
2023-04-23T23:32:45.700Z,37.37
2023-04-23T23:35:14.630Z,37.52
2023-04-23T23:37:41.401Z,37.48
2023-04-23T23:40:11.320Z,37.30
2023-04-23T23:42:37.993Z,37.28
2023-04-23T23:45:05.188Z,37.65
2023-04-23T23:47:34.278Z,37.59
2023-04-23T23:50:04.043Z,37.44
2023-04-23T23:52:32.925Z,37.51
2023-04-23T23:54:59.612Z,37.60
2023-04-23T23:57:28.560Z,37.72
2023-04-23T23:59:57.419Z,37.75
